Terminal Aerodrome Forecast
Issued by NWS

Home | Current Version | Previous Version | Graphics & Text | Print | Product List | Glossary On
Versions: 1 2 3 4 5 6 7 8 9 10 11 12 13 14 15 16 17 18 19 20 21 22 23 24 25 26
000
FTUS43 KABR 280421 AAC
TAFMBG
TAF AMD
KMBG 280421Z 2804/2824 21004G17KT 6SM TSRA SCT023 BKN070CB OVC100
     FM280500 18011KT P6SM VCTS OVC050CB
     FM280900 30025G35KT P6SM BKN200=

USA.gov is the U.S. government's official web portal to all federal, state and local government web resources and services.